createdAt,value
2017-08-22T00:00:19.791Z,12.07
2017-08-22T00:02:50.220Z,11.76
2017-08-22T00:05:20.108Z,11.69
2017-08-22T00:07:49.641Z,11.66
2017-08-22T00:10:18.174Z,11.48
2017-08-22T00:12:46.541Z,11.44
2017-08-22T00:15:14.980Z,11.44
2017-08-22T00:17:43.362Z,11.43
2017-08-22T00:20:11.738Z,11.55
2017-08-22T00:22:40.137Z,11.64
2017-08-22T00:25:08.519Z,11.70
2017-08-22T00:27:36.939Z,11.65
2017-08-22T00:30:05.316Z,11.67
2017-08-22T00:32:33.725Z,11.69
2017-08-22T00:35:02.110Z,11.67
2017-08-22T00:37:30.487Z,11.70
2017-08-22T00:39:58.879Z,11.64
2017-08-22T00:42:32.316Z,11.63
2017-08-22T00:45:01.962Z,11.55
2017-08-22T00:47:31.288Z,11.63
2017-08-22T00:49:59.772Z,11.66
2017-08-22T00:52:28.133Z,11.71
2017-08-22T00:54:56.493Z,11.69
2017-08-22T00:57:24.891Z,11.65
2017-08-22T00:59:53.290Z,11.52
2017-08-22T01:02:21.679Z,11.28
2017-08-22T01:04:50.055Z,11.35
2017-08-22T01:07:18.488Z,11.42
2017-08-22T01:09:46.870Z,11.36
2017-08-22T01:12:15.278Z,11.19
2017-08-22T01:14:43.640Z,11.19
2017-08-22T01:17:12.016Z,11.06
2017-08-22T01:19:40.417Z,11.12
2017-08-22T01:22:08.826Z,11.02
2017-08-22T01:24:37.239Z,11.00
2017-08-22T01:27:05.623Z,11.02
2017-08-22T01:29:34.040Z,10.90
2017-08-22T01:32:02.420Z,10.77
2017-08-22T01:34:30.820Z,10.84
2017-08-22T01:36:59.245Z,10.88
2017-08-22T01:39:27.618Z,10.84
2017-08-22T01:41:56.155Z,10.97
2017-08-22T01:44:24.546Z,10.95
2017-08-22T01:46:52.959Z,10.91
2017-08-22T01:49:21.335Z,10.89
2017-08-22T01:51:49.793Z,10.97
2017-08-22T01:54:18.312Z,10.94
2017-08-22T01:56:46.703Z,10.78
2017-08-22T01:59:15.198Z,10.70
2017-08-22T02:01:43.593Z,10.72
2017-08-22T02:04:12.003Z,10.76
2017-08-22T02:06:40.381Z,10.77
2017-08-22T02:09:08.803Z,10.86
2017-08-22T02:11:37.171Z,10.87
2017-08-22T02:14:05.581Z,10.84
2017-08-22T02:16:33.969Z,10.80
2017-08-22T02:19:02.400Z,10.90
2017-08-22T02:21:30.779Z,10.92
2017-08-22T02:23:59.192Z,10.89
2017-08-22T02:26:27.560Z,10.95
2017-08-22T02:28:55.986Z,10.98
2017-08-22T02:31:24.389Z,10.98
2017-08-22T02:33:52.823Z,10.92
2017-08-22T02:36:21.217Z,10.87
2017-08-22T02:38:49.631Z,10.91
2017-08-22T02:41:18.035Z,10.91
2017-08-22T02:43:46.435Z,10.83
2017-08-22T02:46:14.834Z,10.67
2017-08-22T02:48:43.218Z,10.72
2017-08-22T02:51:11.633Z,10.68
2017-08-22T02:53:40.019Z,10.66
2017-08-22T02:56:08.451Z,10.63
2017-08-22T02:58:36.843Z,10.52
2017-08-22T03:01:05.255Z,10.42
2017-08-22T03:03:33.648Z,10.26
2017-08-22T03:06:02.032Z,10.15
2017-08-22T03:08:30.449Z,10.11
2017-08-22T03:10:58.813Z,9.98
2017-08-22T03:13:27.211Z,9.87
2017-08-22T03:15:55.594Z,9.92
2017-08-22T03:18:24.002Z,9.85
2017-08-22T03:20:52.392Z,9.93
2017-08-22T03:23:20.791Z,9.97
2017-08-22T03:25:49.160Z,9.93
2017-08-22T03:28:17.566Z,10.01
2017-08-22T03:30:45.948Z,10.11
2017-08-22T03:33:14.314Z,10.06
2017-08-22T03:35:42.719Z,10.01
2017-08-22T03:38:11.107Z,9.97
2017-08-22T03:40:39.508Z,10.06
2017-08-22T03:43:07.903Z,9.99
2017-08-22T03:45:36.342Z,10.05
2017-08-22T03:48:04.719Z,10.00
2017-08-22T03:50:33.125Z,9.84
2017-08-22T03:53:04.476Z,9.76
2017-08-22T03:55:33.531Z,9.89
2017-08-22T03:58:01.927Z,10.01
2017-08-22T04:00:30.295Z,9.91
2017-08-22T04:02:58.694Z,9.83
2017-08-22T04:05:27.115Z,9.69
2017-08-22T04:07:55.472Z,9.72
2017-08-22T04:10:23.868Z,9.76
2017-08-22T04:12:52.232Z,9.86
2017-08-22T04:15:20.640Z,9.92
2017-08-22T04:17:49.026Z,10.02
2017-08-22T04:20:17.428Z,9.99
2017-08-22T04:22:45.799Z,9.76
2017-08-22T04:25:14.184Z,9.77
2017-08-22T04:27:42.622Z,9.58
2017-08-22T04:30:10.981Z,9.61
2017-08-22T04:32:39.364Z,9.65
2017-08-22T04:35:07.796Z,9.81
2017-08-22T04:37:36.335Z,9.94
2017-08-22T04:40:04.725Z,9.85
2017-08-22T04:42:33.095Z,9.78
2017-08-22T04:45:01.482Z,9.84
2017-08-22T04:47:29.856Z,9.95
2017-08-22T04:49:58.277Z,10.02
2017-08-22T04:52:26.667Z,10.07
2017-08-22T04:54:56.930Z,10.12
2017-08-22T04:57:26.276Z,10.02
2017-08-22T04:59:54.671Z,10.09
2017-08-22T05:02:23.034Z,10.35
2017-08-22T05:04:51.426Z,10.50
2017-08-22T05:07:19.811Z,10.55
2017-08-22T05:09:48.346Z,10.53
2017-08-22T05:12:16.882Z,10.57
2017-08-22T05:14:45.498Z,10.74
2017-08-22T05:17:13.931Z,10.90
2017-08-22T05:19:42.296Z,11.01
2017-08-22T05:22:10.682Z,11.11
2017-08-22T05:24:39.076Z,11.16
2017-08-22T05:27:07.450Z,11.11
2017-08-22T05:29:35.855Z,11.14
2017-08-22T05:32:04.229Z,11.19
2017-08-22T05:34:32.643Z,11.35
2017-08-22T05:37:01.095Z,11.46
2017-08-22T05:39:29.546Z,11.56
2017-08-22T05:41:57.959Z,11.57
2017-08-22T05:44:26.339Z,11.65
2017-08-22T05:46:54.733Z,11.71
2017-08-22T05:49:23.102Z,11.71
2017-08-22T05:51:51.509Z,11.82
2017-08-22T05:54:19.878Z,11.87
2017-08-22T05:56:48.259Z,12.00
2017-08-22T05:59:16.666Z,12.00
2017-08-22T06:01:45.061Z,11.99
2017-08-22T06:04:13.433Z,12.14
2017-08-22T06:06:41.967Z,12.11
2017-08-22T06:09:10.370Z,12.13
2017-08-22T06:11:38.768Z,12.15
2017-08-22T06:14:07.180Z,12.22
2017-08-22T06:16:35.560Z,12.18
2017-08-22T06:19:03.953Z,12.17
2017-08-22T06:21:32.323Z,12.26
2017-08-22T06:24:00.694Z,12.43
2017-08-22T06:26:29.861Z,12.54
2017-08-22T06:28:58.252Z,12.71
2017-08-22T06:31:26.659Z,12.82
2017-08-22T06:33:55.051Z,13.03
2017-08-22T06:36:23.414Z,13.10
2017-08-22T06:38:51.843Z,13.17
2017-08-22T06:41:20.219Z,13.31
2017-08-22T06:43:48.627Z,13.38
2017-08-22T06:46:17.012Z,13.45
2017-08-22T06:48:45.401Z,13.39
2017-08-22T06:51:13.778Z,13.53
2017-08-22T06:53:42.183Z,13.78
2017-08-22T06:56:10.561Z,13.82
2017-08-22T06:58:38.949Z,13.96
2017-08-22T07:01:07.364Z,14.00
2017-08-22T07:03:35.752Z,13.95
2017-08-22T07:06:04.146Z,14.04
2017-08-22T07:08:32.526Z,14.27
2017-08-22T07:11:00.936Z,14.41
2017-08-22T07:13:29.319Z,14.67
2017-08-22T07:15:57.723Z,14.90
2017-08-22T07:18:26.101Z,15.08
2017-08-22T07:20:54.469Z,15.24
2017-08-22T07:23:22.853Z,15.46
2017-08-22T07:25:51.232Z,15.42
2017-08-22T07:28:19.642Z,15.54
2017-08-22T07:30:48.022Z,15.68
2017-08-22T07:33:16.412Z,15.84
2017-08-22T07:35:44.773Z,15.92
2017-08-22T07:38:13.139Z,15.80
2017-08-22T07:40:41.543Z,15.58
2017-08-22T07:43:09.925Z,15.56
2017-08-22T07:45:38.314Z,15.54
2017-08-22T07:48:06.692Z,15.64
2017-08-22T07:50:35.093Z,15.72
2017-08-22T07:53:03.485Z,15.93
2017-08-22T07:55:31.876Z,15.85
2017-08-22T07:58:00.336Z,16.09
2017-08-22T08:00:28.701Z,16.22
2017-08-22T08:02:57.091Z,16.33
2017-08-22T08:05:25.461Z,16.43
2017-08-22T08:07:53.871Z,16.58
2017-08-22T08:10:22.239Z,16.74
2017-08-22T08:12:50.629Z,16.94
2017-08-22T08:15:19.015Z,17.10
2017-08-22T08:17:47.436Z,17.26
2017-08-22T08:20:15.805Z,17.42
2017-08-22T08:22:44.169Z,17.55
2017-08-22T08:25:12.572Z,17.74
2017-08-22T08:27:40.965Z,17.84
2017-08-22T08:30:09.357Z,18.07
2017-08-22T08:32:37.725Z,18.23
2017-08-22T08:35:06.106Z,18.46
2017-08-22T08:37:34.509Z,18.62
2017-08-22T08:40:02.891Z,18.84
2017-08-22T08:42:31.294Z,18.97
2017-08-22T08:44:59.674Z,19.00
2017-08-22T08:47:28.080Z,19.05
2017-08-22T08:49:56.460Z,18.95
2017-08-22T08:52:24.875Z,19.20
2017-08-22T08:54:53.244Z,19.21
2017-08-22T08:57:21.638Z,19.42
2017-08-22T08:59:50.041Z,19.24
2017-08-22T09:02:18.410Z,19.43
2017-08-22T09:04:46.826Z,19.64
2017-08-22T09:07:15.214Z,19.82
2017-08-22T09:09:43.615Z,19.87
2017-08-22T09:12:11.982Z,20.04
2017-08-22T09:14:40.385Z,20.13
2017-08-22T09:17:08.761Z,20.27
2017-08-22T09:19:37.176Z,20.35
2017-08-22T09:22:05.556Z,20.53
2017-08-22T09:24:33.930Z,20.58
2017-08-22T09:27:02.339Z,20.64
2017-08-22T09:29:30.715Z,20.82
2017-08-22T09:31:59.097Z,21.03
2017-08-22T09:34:27.469Z,20.86
2017-08-22T09:36:55.934Z,21.08
2017-08-22T09:39:24.300Z,21.21
2017-08-22T09:41:52.679Z,21.49
2017-08-22T09:44:21.045Z,21.48
2017-08-22T09:46:49.450Z,21.43
2017-08-22T09:49:17.808Z,21.88
2017-08-22T09:51:46.169Z,22.15
2017-08-22T09:54:14.562Z,22.34
2017-08-22T09:56:42.929Z,21.99
2017-08-22T09:59:11.344Z,21.90
2017-08-22T10:01:39.719Z,22.40
2017-08-22T10:04:08.132Z,22.77
2017-08-22T10:06:36.515Z,22.83
2017-08-22T10:09:04.909Z,22.78
2017-08-22T10:11:33.284Z,22.18
2017-08-22T10:14:30.730Z,22.54
2017-08-22T10:16:59.091Z,22.65
2017-08-22T10:19:27.487Z,22.76
2017-08-22T10:21:55.871Z,22.97
2017-08-22T10:24:24.237Z,21.83
2017-08-22T10:26:52.622Z,22.69
2017-08-22T10:29:21.000Z,23.08
2017-08-22T10:31:49.395Z,23.50
2017-08-22T10:34:17.760Z,23.37
2017-08-22T10:36:46.153Z,23.71
2017-08-22T10:39:14.541Z,24.20
2017-08-22T10:41:42.940Z,24.59
2017-08-22T10:44:11.308Z,24.55
2017-08-22T10:46:39.683Z,24.73
2017-08-22T10:49:08.081Z,24.80
2017-08-22T10:51:36.462Z,24.62
2017-08-22T10:54:04.857Z,24.19
2017-08-22T10:56:33.228Z,24.61
2017-08-22T10:59:01.664Z,24.78
2017-08-22T11:01:30.032Z,25.05
2017-08-22T11:03:58.459Z,25.08
2017-08-22T11:06:26.821Z,25.07
2017-08-22T11:08:55.180Z,25.28
2017-08-22T11:11:23.586Z,25.49
2017-08-22T11:13:51.963Z,25.00
2017-08-22T11:16:20.349Z,24.99
2017-08-22T11:18:48.723Z,25.02
2017-08-22T11:21:17.136Z,24.74
2017-08-22T11:23:45.518Z,25.15
2017-08-22T11:26:13.901Z,25.52
2017-08-22T11:28:42.306Z,24.56
2017-08-22T11:31:10.687Z,24.95
2017-08-22T11:33:39.074Z,25.06
2017-08-22T11:36:07.445Z,25.41
2017-08-22T11:38:35.832Z,25.34
2017-08-22T11:41:04.197Z,25.47
2017-08-22T11:43:32.561Z,25.88
2017-08-22T11:46:00.995Z,26.11
2017-08-22T11:48:29.371Z,25.82
2017-08-22T11:50:57.790Z,26.40
2017-08-22T11:53:26.178Z,25.71
2017-08-22T11:55:54.565Z,26.03
2017-08-22T11:58:22.933Z,24.92
2017-08-22T12:00:51.320Z,24.56
2017-08-22T12:03:19.711Z,25.26
2017-08-22T12:05:48.084Z,24.97
2017-08-22T12:08:16.475Z,25.37
2017-08-22T12:10:44.851Z,25.19
2017-08-22T12:13:13.255Z,25.01
2017-08-22T12:15:41.637Z,25.37
2017-08-22T12:18:10.039Z,25.80
2017-08-22T12:20:38.405Z,26.42
2017-08-22T12:23:06.778Z,26.95
2017-08-22T12:25:35.186Z,27.10
2017-08-22T12:28:03.791Z,27.09
2017-08-22T12:30:32.775Z,26.88
2017-08-22T12:33:01.339Z,26.68
2017-08-22T12:35:29.736Z,26.47
2017-08-22T12:37:58.124Z,26.21
2017-08-22T12:40:26.504Z,26.41
2017-08-22T12:42:54.906Z,26.55
2017-08-22T12:45:23.297Z,26.50
2017-08-22T12:47:51.679Z,26.59
2017-08-22T12:50:20.050Z,26.53
2017-08-22T12:52:48.448Z,26.40
2017-08-22T12:55:16.823Z,26.33
2017-08-22T12:57:45.196Z,25.08
2017-08-22T13:00:13.572Z,25.76
2017-08-22T13:02:41.965Z,25.75
2017-08-22T13:05:10.343Z,26.29
2017-08-22T13:07:38.748Z,26.38
2017-08-22T13:10:07.144Z,25.79
2017-08-22T13:12:35.532Z,24.68
2017-08-22T13:15:03.922Z,25.32
2017-08-22T13:17:32.332Z,25.61
2017-08-22T13:20:00.712Z,25.90
2017-08-22T13:22:29.077Z,26.78
2017-08-22T13:24:57.483Z,27.35
2017-08-22T13:27:25.845Z,27.31
2017-08-22T13:29:54.248Z,27.43
2017-08-22T13:32:22.636Z,28.35
2017-08-22T13:34:51.050Z,29.29
2017-08-22T13:37:19.426Z,29.73
2017-08-22T13:39:47.811Z,30.44
2017-08-22T13:42:16.205Z,30.86
2017-08-22T13:44:44.577Z,31.55
2017-08-22T13:47:12.966Z,31.81
2017-08-22T13:49:41.334Z,32.05
2017-08-22T13:52:09.740Z,32.91
2017-08-22T13:54:38.115Z,33.31
2017-08-22T13:57:06.497Z,33.68
2017-08-22T13:59:34.895Z,32.85
2017-08-22T14:02:03.272Z,33.79
2017-08-22T14:04:31.664Z,33.54
2017-08-22T14:07:00.038Z,32.36
2017-08-22T14:09:28.432Z,31.35
2017-08-22T14:11:56.800Z,30.00
2017-08-22T14:14:25.158Z,29.59
2017-08-22T14:16:53.566Z,29.30
2017-08-22T14:19:21.958Z,28.92
2017-08-22T14:21:50.345Z,28.45
2017-08-22T14:24:18.728Z,28.19
2017-08-22T14:26:47.123Z,28.20
2017-08-22T14:29:15.503Z,29.19
2017-08-22T14:31:43.897Z,29.53
2017-08-22T14:34:12.270Z,29.89
2017-08-22T14:36:40.666Z,29.48
2017-08-22T14:39:09.042Z,29.12
2017-08-22T14:41:37.464Z,29.16
2017-08-22T14:44:05.833Z,29.60
2017-08-22T14:46:34.192Z,29.31
2017-08-22T14:49:02.579Z,29.16
2017-08-22T14:51:30.949Z,30.22
2017-08-22T14:53:59.340Z,30.61
2017-08-22T14:56:27.704Z,31.22
2017-08-22T14:58:56.076Z,31.26
2017-08-22T15:01:24.468Z,31.28
2017-08-22T15:03:52.877Z,31.90
2017-08-22T15:06:21.249Z,31.77
2017-08-22T15:08:49.658Z,32.81
2017-08-22T15:11:18.021Z,33.31
2017-08-22T15:13:46.428Z,33.78
2017-08-22T15:16:14.794Z,33.50
2017-08-22T15:18:43.270Z,31.91
2017-08-22T15:21:11.693Z,32.86
2017-08-22T15:23:40.088Z,33.53
2017-08-22T15:26:08.487Z,34.55
2017-08-22T15:28:36.853Z,34.52
2017-08-22T15:31:05.209Z,34.95
2017-08-22T15:33:33.606Z,34.74
2017-08-22T15:36:01.986Z,35.30
2017-08-22T15:38:30.401Z,35.74
2017-08-22T15:40:58.776Z,35.63
2017-08-22T15:43:27.162Z,35.23
2017-08-22T15:45:55.568Z,35.05
2017-08-22T15:48:24.176Z,34.16
2017-08-22T15:50:52.561Z,34.24
2017-08-22T15:53:21.496Z,33.85
2017-08-22T15:55:49.957Z,33.58
2017-08-22T15:58:18.489Z,33.76
2017-08-22T16:00:46.945Z,33.00
2017-08-22T16:03:15.370Z,32.91
2017-08-22T16:05:43.769Z,33.39
2017-08-22T16:08:12.154Z,33.85
2017-08-22T16:10:40.560Z,34.21
2017-08-22T16:13:08.936Z,34.79
2017-08-22T16:15:38.111Z,34.87
2017-08-22T16:18:06.496Z,34.89
2017-08-22T16:20:34.916Z,35.29
2017-08-22T16:23:03.297Z,35.36
2017-08-22T16:25:31.705Z,35.55
2017-08-22T16:28:00.104Z,35.67
2017-08-22T16:30:28.521Z,35.62
2017-08-22T16:32:56.920Z,35.89
2017-08-22T16:35:25.339Z,35.96
2017-08-22T16:37:53.724Z,36.20
2017-08-22T16:40:22.213Z,36.23
2017-08-22T16:42:50.583Z,36.28
2017-08-22T16:45:18.982Z,35.81
2017-08-22T16:47:47.366Z,35.45
2017-08-22T16:50:15.778Z,35.47
2017-08-22T16:52:44.160Z,35.05
2017-08-22T16:55:12.581Z,34.98
2017-08-22T16:57:40.954Z,34.76
2017-08-22T17:00:09.335Z,34.60
2017-08-22T17:02:37.742Z,33.96
2017-08-22T17:05:06.149Z,33.71
2017-08-22T17:07:34.543Z,33.18
2017-08-22T17:10:02.950Z,33.07
2017-08-22T17:12:31.347Z,33.10
2017-08-22T17:14:59.729Z,33.10
2017-08-22T17:17:28.116Z,32.94
2017-08-22T17:19:56.518Z,32.92
2017-08-22T17:22:24.957Z,32.69
2017-08-22T17:24:53.322Z,32.59
2017-08-22T17:27:21.721Z,32.52
2017-08-22T17:29:50.081Z,32.29
2017-08-22T17:32:18.478Z,31.86
2017-08-22T17:34:46.848Z,31.38
2017-08-22T17:37:15.219Z,30.62
2017-08-22T17:39:43.613Z,29.92
2017-08-22T17:42:11.981Z,29.38
2017-08-22T17:44:40.392Z,28.89
2017-08-22T17:47:08.776Z,28.18
2017-08-22T17:49:37.151Z,27.57
2017-08-22T17:52:05.551Z,27.02
2017-08-22T17:54:33.940Z,26.67
2017-08-22T17:57:02.339Z,26.25
2017-08-22T17:59:30.711Z,25.82
2017-08-22T18:01:59.099Z,24.92
2017-08-22T18:04:27.489Z,24.35
2017-08-22T18:06:55.895Z,23.91
2017-08-22T18:09:24.270Z,23.40
2017-08-22T18:11:52.675Z,22.99
2017-08-22T18:14:21.054Z,22.84
2017-08-22T18:16:49.475Z,22.61
2017-08-22T18:19:17.838Z,22.23
2017-08-22T18:21:46.214Z,22.04
2017-08-22T18:24:14.619Z,21.83
2017-08-22T18:26:43.007Z,21.58
2017-08-22T18:29:11.397Z,21.34
2017-08-22T18:31:39.786Z,21.23
2017-08-22T18:34:08.195Z,21.10
2017-08-22T18:36:36.564Z,21.00
2017-08-22T18:39:04.968Z,20.84
2017-08-22T18:41:33.351Z,20.72
2017-08-22T18:44:01.742Z,20.55
2017-08-22T18:46:30.109Z,20.38
2017-08-22T18:48:58.511Z,20.24
2017-08-22T18:51:26.887Z,20.10
2017-08-22T18:53:55.302Z,20.05
2017-08-22T18:56:23.685Z,19.85
2017-08-22T18:58:52.086Z,19.63
2017-08-22T19:01:20.472Z,19.58
2017-08-22T19:03:48.842Z,19.56
2017-08-22T19:06:17.244Z,19.50
2017-08-22T19:08:45.652Z,19.49
2017-08-22T19:11:14.048Z,19.25
2017-08-22T19:13:42.463Z,19.30
2017-08-22T19:16:10.870Z,19.34
2017-08-22T19:18:39.256Z,19.28
2017-08-22T19:21:07.679Z,19.23
2017-08-22T19:23:36.059Z,19.21
2017-08-22T19:26:04.457Z,19.21
2017-08-22T19:28:32.892Z,19.11
2017-08-22T19:31:01.261Z,19.03
2017-08-22T19:33:29.666Z,19.00
2017-08-22T19:35:58.058Z,18.95
2017-08-22T19:38:26.450Z,18.76
2017-08-22T19:40:54.847Z,18.78
2017-08-22T19:43:23.215Z,18.74
2017-08-22T19:45:51.651Z,18.70
2017-08-22T19:48:20.038Z,18.60
2017-08-22T19:50:48.446Z,18.55
2017-08-22T19:53:16.830Z,18.47
2017-08-22T19:55:45.208Z,18.37
2017-08-22T19:58:13.630Z,18.32
2017-08-22T20:00:42.007Z,18.24
2017-08-22T20:03:10.407Z,18.19
2017-08-22T20:05:38.801Z,18.12
2017-08-22T20:08:07.183Z,18.10
2017-08-22T20:10:35.569Z,18.06
2017-08-22T20:13:03.957Z,18.07
2017-08-22T20:15:32.373Z,18.03
2017-08-22T20:18:00.760Z,18.03
2017-08-22T20:20:29.135Z,17.94
2017-08-22T20:22:57.537Z,17.92
2017-08-22T20:25:25.912Z,17.90
2017-08-22T20:27:54.300Z,17.85
2017-08-22T20:30:22.707Z,17.79
2017-08-22T20:32:51.083Z,17.69
2017-08-22T20:35:19.499Z,17.61
2017-08-22T20:37:47.893Z,17.54
2017-08-22T20:40:16.261Z,17.47
2017-08-22T20:45:22.346Z,17.35
2017-08-22T20:47:50.803Z,17.33
2017-08-22T20:50:19.205Z,17.28
2017-08-22T20:52:47.566Z,17.19
2017-08-22T20:55:16.023Z,17.13
2017-08-22T20:57:44.439Z,17.14
2017-08-22T21:00:12.985Z,17.09
2017-08-22T21:02:41.442Z,17.05
2017-08-22T21:05:09.865Z,17.00
2017-08-22T21:07:38.263Z,16.93
2017-08-22T21:10:06.625Z,16.90
2017-08-22T21:12:35.015Z,16.91
2017-08-22T21:15:03.373Z,16.88
2017-08-22T21:17:31.737Z,16.82
2017-08-22T21:20:00.143Z,16.79
2017-08-22T21:22:28.516Z,16.78
2017-08-22T21:24:56.927Z,16.79
2017-08-22T21:27:25.320Z,16.74
2017-08-22T21:29:53.706Z,16.69
2017-08-22T21:32:22.130Z,16.67
2017-08-22T21:34:50.507Z,16.59
2017-08-22T21:37:18.891Z,16.52
2017-08-22T21:39:47.285Z,16.50
2017-08-22T21:42:15.668Z,16.49
2017-08-22T21:44:44.041Z,16.42
2017-08-22T21:47:12.452Z,16.40
2017-08-22T21:49:40.831Z,16.33
2017-08-22T21:52:09.309Z,16.25
2017-08-22T21:54:37.687Z,16.16
2017-08-22T21:57:06.063Z,16.14
2017-08-22T21:59:34.497Z,16.06
2017-08-22T22:02:02.897Z,15.99
2017-08-22T22:04:31.310Z,15.99
2017-08-22T22:06:59.686Z,15.99
2017-08-22T22:09:28.068Z,15.79
2017-08-22T22:11:56.471Z,15.87
2017-08-22T22:14:24.851Z,15.81
2017-08-22T22:16:53.255Z,15.80
2017-08-22T22:19:21.642Z,15.74
2017-08-22T22:21:50.027Z,15.65
2017-08-22T22:24:18.440Z,15.64
2017-08-22T22:26:46.805Z,15.55
2017-08-22T22:29:15.204Z,15.54
2017-08-22T22:31:43.573Z,15.51
2017-08-22T22:34:11.954Z,15.51
2017-08-22T22:36:40.392Z,15.44
2017-08-22T22:39:08.756Z,15.41
2017-08-22T22:41:37.137Z,15.41
2017-08-22T22:44:05.509Z,15.30
2017-08-22T22:46:33.916Z,15.28
2017-08-22T22:49:02.276Z,15.13
2017-08-22T22:51:30.641Z,14.98
2017-08-22T22:53:59.035Z,15.08
2017-08-22T22:56:27.409Z,15.10
2017-08-22T22:58:55.793Z,15.03
2017-08-22T23:01:24.155Z,15.06
2017-08-22T23:03:52.541Z,15.02
2017-08-22T23:06:20.923Z,14.87
2017-08-22T23:08:49.269Z,14.88
2017-08-22T23:11:17.684Z,14.86
2017-08-22T23:13:46.075Z,14.85
2017-08-22T23:16:14.450Z,14.76
2017-08-22T23:18:42.832Z,14.71
2017-08-22T23:21:11.188Z,14.64
2017-08-22T23:23:39.580Z,14.64
2017-08-22T23:26:07.942Z,14.62
2017-08-22T23:28:36.298Z,14.55
2017-08-22T23:31:04.677Z,14.41
2017-08-22T23:33:33.041Z,14.50
2017-08-22T23:36:01.432Z,14.45
2017-08-22T23:38:29.787Z,14.39
2017-08-22T23:40:58.143Z,14.36
2017-08-22T23:43:26.535Z,14.19
2017-08-22T23:45:54.909Z,14.22
2017-08-22T23:48:23.293Z,14.23
2017-08-22T23:50:51.700Z,14.20
2017-08-22T23:53:20.083Z,14.11
2017-08-22T23:55:48.481Z,14.09
2017-08-22T23:58:16.831Z,14.05
